sensor_id;sensor_type;location;lat;lon;timestamp;temperature;humidity
44487;DHT22;30191;50.908;6.962;2022-07-23T00:02:06;21.30;99.90
44487;DHT22;30191;50.908;6.962;2022-07-23T00:04:32;21.30;99.90
44487;DHT22;30191;50.908;6.962;2022-07-23T00:06:58;21.20;99.90
44487;DHT22;30191;50.908;6.962;2022-07-23T00:09:24;21.20;99.90
44487;DHT22;30191;50.908;6.962;2022-07-23T00:11:49;21.10;99.90
44487;DHT22;30191;50.908;6.962;2022-07-23T00:14:15;21.00;99.90
44487;DHT22;30191;50.908;6.962;2022-07-23T00:16:41;20.90;99.90
44487;DHT22;30191;50.908;6.962;2022-07-23T00:19:06;20.90;99.90
44487;DHT22;30191;50.908;6.962;2022-07-23T00:21:32;20.80;99.90
44487;DHT22;30191;50.908;6.962;2022-07-23T00:23:58;20.80;99.90
44487;DHT22;30191;50.908;6.962;2022-07-23T00:26:24;20.80;99.90
44487;DHT22;30191;50.908;6.962;2022-07-23T00:28:49;20.80;99.90
44487;DHT22;30191;50.908;6.962;2022-07-23T00:31:15;20.80;99.90
44487;DHT22;30191;50.908;6.962;2022-07-23T00:33:41;20.80;99.90
44487;DHT22;30191;50.908;6.962;2022-07-23T00:36:07;20.70;99.90
44487;DHT22;30191;50.908;6.962;2022-07-23T00:38:32;20.60;99.90
44487;DHT22;30191;50.908;6.962;2022-07-23T00:40:58;20.30;99.90
44487;DHT22;30191;50.908;6.962;2022-07-23T00:43:24;20.20;99.90
44487;DHT22;30191;50.908;6.962;2022-07-23T00:45:50;20.10;99.90
44487;DHT22;30191;50.908;6.962;2022-07-23T00:48:16;20.00;99.90
44487;DHT22;30191;50.908;6.962;2022-07-23T00:50:43;20.00;99.90
44487;DHT22;30191;50.908;6.962;2022-07-23T00:53:09;20.00;99.90
44487;DHT22;30191;50.908;6.962;2022-07-23T00:55:34;20.00;99.90
44487;DHT22;30191;50.908;6.962;2022-07-23T00:58:01;20.00;99.90
44487;DHT22;30191;50.908;6.962;2022-07-23T01:00:28;20.10;99.90
44487;DHT22;30191;50.908;6.962;2022-07-23T01:02:53;20.10;99.90
44487;DHT22;30191;50.908;6.962;2022-07-23T01:05:19;20.10;99.90
44487;DHT22;30191;50.908;6.962;2022-07-23T01:07:51;20.10;99.90
44487;DHT22;30191;50.908;6.962;2022-07-23T01:10:17;20.10;99.90
44487;DHT22;30191;50.908;6.962;2022-07-23T01:13:02;20.20;99.90
44487;DHT22;30191;50.908;6.962;2022-07-23T01:15:29;20.10;99.90
44487;DHT22;30191;50.908;6.962;2022-07-23T01:17:55;20.20;99.90
44487;DHT22;30191;50.908;6.962;2022-07-23T01:20:22;20.20;99.90
44487;DHT22;30191;50.908;6.962;2022-07-23T01:22:48;20.20;99.90
44487;DHT22;30191;50.908;6.962;2022-07-23T01:25:14;20.20;99.90
44487;DHT22;30191;50.908;6.962;2022-07-23T01:27:40;20.30;99.90
44487;DHT22;30191;50.908;6.962;2022-07-23T01:30:06;20.30;99.90
44487;DHT22;30191;50.908;6.962;2022-07-23T01:32:33;20.30;99.90
44487;DHT22;30191;50.908;6.962;2022-07-23T01:34:58;20.20;99.90
44487;DHT22;30191;50.908;6.962;2022-07-23T01:37:24;20.20;99.90
44487;DHT22;30191;50.908;6.962;2022-07-23T01:39:50;20.10;99.90
44487;DHT22;30191;50.908;6.962;2022-07-23T01:42:16;20.10;99.90
44487;DHT22;30191;50.908;6.962;2022-07-23T01:44:41;20.10;99.90
44487;DHT22;30191;50.908;6.962;2022-07-23T01:47:07;20.00;99.90
44487;DHT22;30191;50.908;6.962;2022-07-23T01:49:33;20.00;99.90
44487;DHT22;30191;50.908;6.962;2022-07-23T01:51:58;20.00;99.90
44487;DHT22;30191;50.908;6.962;2022-07-23T01:54:33;20.00;99.90
44487;DHT22;30191;50.908;6.962;2022-07-23T01:56:59;19.90;99.90
44487;DHT22;30191;50.908;6.962;2022-07-23T01:59:26;19.90;99.90
44487;DHT22;30191;50.908;6.962;2022-07-23T02:01:52;19.80;99.90
44487;DHT22;30191;50.908;6.962;2022-07-23T02:04:19;19.70;99.90
44487;DHT22;30191;50.908;6.962;2022-07-23T02:06:45;19.70;99.90
44487;DHT22;30191;50.908;6.962;2022-07-23T02:09:11;19.60;99.90
44487;DHT22;30191;50.908;6.962;2022-07-23T02:11:37;19.60;99.90
44487;DHT22;30191;50.908;6.962;2022-07-23T02:14:03;19.50;99.90
44487;DHT22;30191;50.908;6.962;2022-07-23T02:16:29;19.60;99.90
44487;DHT22;30191;50.908;6.962;2022-07-23T02:18:55;19.60;99.90
44487;DHT22;30191;50.908;6.962;2022-07-23T02:21:20;19.60;99.90
44487;DHT22;30191;50.908;6.962;2022-07-23T02:23:46;19.50;99.90
44487;DHT22;30191;50.908;6.962;2022-07-23T02:26:12;19.50;99.90
44487;DHT22;30191;50.908;6.962;2022-07-23T02:28:38;19.50;99.90
44487;DHT22;30191;50.908;6.962;2022-07-23T02:31:04;19.50;99.90
44487;DHT22;30191;50.908;6.962;2022-07-23T02:33:29;19.40;99.90
44487;DHT22;30191;50.908;6.962;2022-07-23T02:35:55;19.40;99.90
44487;DHT22;30191;50.908;6.962;2022-07-23T02:38:21;19.40;99.90
44487;DHT22;30191;50.908;6.962;2022-07-23T02:40:46;19.30;99.90
44487;DHT22;30191;50.908;6.962;2022-07-23T02:43:12;19.30;99.90
44487;DHT22;30191;50.908;6.962;2022-07-23T02:45:38;19.20;99.90
44487;DHT22;30191;50.908;6.962;2022-07-23T02:48:04;19.20;99.90
44487;DHT22;30191;50.908;6.962;2022-07-23T02:50:29;19.30;99.90
44487;DHT22;30191;50.908;6.962;2022-07-23T02:52:55;19.20;99.90
44487;DHT22;30191;50.908;6.962;2022-07-23T02:55:21;19.20;99.90
44487;DHT22;30191;50.908;6.962;2022-07-23T02:57:46;19.20;99.90
44487;DHT22;30191;50.908;6.962;2022-07-23T03:00:12;19.20;99.90
44487;DHT22;30191;50.908;6.962;2022-07-23T03:02:38;19.20;99.90
44487;DHT22;30191;50.908;6.962;2022-07-23T03:05:05;19.20;99.90
44487;DHT22;30191;50.908;6.962;2022-07-23T03:07:30;19.20;99.90
44487;DHT22;30191;50.908;6.962;2022-07-23T03:09:56;19.20;99.90
44487;DHT22;30191;50.908;6.962;2022-07-23T03:12:22;19.10;99.90
44487;DHT22;30191;50.908;6.962;2022-07-23T03:14:47;19.10;99.90
44487;DHT22;30191;50.908;6.962;2022-07-23T03:17:13;19.20;99.90
44487;DHT22;30191;50.908;6.962;2022-07-23T03:19:39;19.20;99.90
44487;DHT22;30191;50.908;6.962;2022-07-23T03:22:05;19.20;99.90
44487;DHT22;30191;50.908;6.962;2022-07-23T03:24:30;19.20;99.90
44487;DHT22;30191;50.908;6.962;2022-07-23T03:27:15;19.10;99.90
44487;DHT22;30191;50.908;6.962;2022-07-23T03:29:41;19.10;99.90
44487;DHT22;30191;50.908;6.962;2022-07-23T03:32:06;19.00;99.90
44487;DHT22;30191;50.908;6.962;2022-07-23T03:34:32;19.00;99.90
44487;DHT22;30191;50.908;6.962;2022-07-23T03:36:58;18.90;99.90
44487;DHT22;30191;50.908;6.962;2022-07-23T03:39:24;18.90;99.90
44487;DHT22;30191;50.908;6.962;2022-07-23T03:41:50;18.90;99.90
44487;DHT22;30191;50.908;6.962;2022-07-23T03:44:15;18.80;99.90
44487;DHT22;30191;50.908;6.962;2022-07-23T03:46:41;18.80;99.90
44487;DHT22;30191;50.908;6.962;2022-07-23T03:49:07;18.80;99.90
44487;DHT22;30191;50.908;6.962;2022-07-23T03:51:32;18.80;99.90
44487;DHT22;30191;50.908;6.962;2022-07-23T03:53:58;18.70;99.90
44487;DHT22;30191;50.908;6.962;2022-07-23T03:56:24;18.70;99.90
44487;DHT22;30191;50.908;6.962;2022-07-23T03:58:49;18.60;99.90
44487;DHT22;30191;50.908;6.962;2022-07-23T04:01:15;18.60;99.90
44487;DHT22;30191;50.908;6.962;2022-07-23T04:03:41;18.60;99.90
44487;DHT22;30191;50.908;6.962;2022-07-23T04:06:07;18.50;99.90
44487;DHT22;30191;50.908;6.962;2022-07-23T04:08:33;18.50;99.90
44487;DHT22;30191;50.908;6.962;2022-07-23T04:10:59;18.50;99.90
44487;DHT22;30191;50.908;6.962;2022-07-23T04:13:24;18.50;99.90
44487;DHT22;30191;50.908;6.962;2022-07-23T04:15:50;18.50;99.90
44487;DHT22;30191;50.908;6.962;2022-07-23T04:18:17;18.60;99.90
44487;DHT22;30191;50.908;6.962;2022-07-23T04:20:43;18.60;99.90
44487;DHT22;30191;50.908;6.962;2022-07-23T04:23:09;18.60;99.90
44487;DHT22;30191;50.908;6.962;2022-07-23T04:25:35;18.60;99.90
44487;DHT22;30191;50.908;6.962;2022-07-23T04:28:02;18.60;99.90
44487;DHT22;30191;50.908;6.962;2022-07-23T04:30:27;18.60;99.90
44487;DHT22;30191;50.908;6.962;2022-07-23T04:32:53;18.60;99.90
44487;DHT22;30191;50.908;6.962;2022-07-23T04:35:19;18.50;99.90
44487;DHT22;30191;50.908;6.962;2022-07-23T04:37:45;18.60;99.90
44487;DHT22;30191;50.908;6.962;2022-07-23T04:40:12;18.60;99.90
44487;DHT22;30191;50.908;6.962;2022-07-23T04:42:38;18.60;99.90
44487;DHT22;30191;50.908;6.962;2022-07-23T04:45:04;18.60;99.90
44487;DHT22;30191;50.908;6.962;2022-07-23T04:47:30;18.60;99.90
44487;DHT22;30191;50.908;6.962;2022-07-23T04:49:56;18.50;99.90
44487;DHT22;30191;50.908;6.962;2022-07-23T04:52:22;18.50;99.90
44487;DHT22;30191;50.908;6.962;2022-07-23T04:54:48;18.50;99.90
44487;DHT22;30191;50.908;6.962;2022-07-23T04:57:14;18.50;99.90
44487;DHT22;30191;50.908;6.962;2022-07-23T04:59:39;18.50;99.90
44487;DHT22;30191;50.908;6.962;2022-07-23T05:02:05;18.50;99.90
44487;DHT22;30191;50.908;6.962;2022-07-23T05:04:31;18.40;99.90
44487;DHT22;30191;50.908;6.962;2022-07-23T05:06:57;18.50;99.90
44487;DHT22;30191;50.908;6.962;2022-07-23T05:09:23;18.50;99.90
44487;DHT22;30191;50.908;6.962;2022-07-23T05:11:49;18.50;99.90
44487;DHT22;30191;50.908;6.962;2022-07-23T05:14:15;18.50;99.90
44487;DHT22;30191;50.908;6.962;2022-07-23T05:16:41;18.60;99.90
44487;DHT22;30191;50.908;6.962;2022-07-23T05:19:07;18.60;99.90
44487;DHT22;30191;50.908;6.962;2022-07-23T05:21:33;18.60;99.90
44487;DHT22;30191;50.908;6.962;2022-07-23T05:23:58;18.60;99.90
44487;DHT22;30191;50.908;6.962;2022-07-23T05:26:24;18.70;99.90
44487;DHT22;30191;50.908;6.962;2022-07-23T05:28:50;18.60;99.90
44487;DHT22;30191;50.908;6.962;2022-07-23T05:31:16;18.60;99.90
44487;DHT22;30191;50.908;6.962;2022-07-23T05:33:42;18.60;99.90
44487;DHT22;30191;50.908;6.962;2022-07-23T05:36:08;18.60;99.90
44487;DHT22;30191;50.908;6.962;2022-07-23T05:38:34;18.60;99.90
44487;DHT22;30191;50.908;6.962;2022-07-23T05:41:00;18.60;99.90
44487;DHT22;30191;50.908;6.962;2022-07-23T05:43:25;18.60;99.90
44487;DHT22;30191;50.908;6.962;2022-07-23T05:45:51;18.50;99.90
44487;DHT22;30191;50.908;6.962;2022-07-23T05:48:17;18.60;99.90
44487;DHT22;30191;50.908;6.962;2022-07-23T05:50:43;18.60;99.90
44487;DHT22;30191;50.908;6.962;2022-07-23T05:53:08;18.60;99.90
44487;DHT22;30191;50.908;6.962;2022-07-23T05:55:34;18.50;99.90
44487;DHT22;30191;50.908;6.962;2022-07-23T05:58:00;18.50;99.90
44487;DHT22;30191;50.908;6.962;2022-07-23T06:00:27;18.50;99.90
44487;DHT22;30191;50.908;6.962;2022-07-23T06:02:53;18.50;99.90
44487;DHT22;30191;50.908;6.962;2022-07-23T06:05:19;18.50;99.90
44487;DHT22;30191;50.908;6.962;2022-07-23T06:07:44;18.50;99.90
44487;DHT22;30191;50.908;6.962;2022-07-23T06:10:10;18.50;99.90
44487;DHT22;30191;50.908;6.962;2022-07-23T06:12:36;18.50;99.90
44487;DHT22;30191;50.908;6.962;2022-07-23T06:15:03;18.50;99.90
44487;DHT22;30191;50.908;6.962;2022-07-23T06:17:29;18.50;99.90
44487;DHT22;30191;50.908;6.962;2022-07-23T06:19:55;18.50;99.90
44487;DHT22;30191;50.908;6.962;2022-07-23T06:22:21;18.50;99.90
44487;DHT22;30191;50.908;6.962;2022-07-23T06:24:48;18.60;99.90
44487;DHT22;30191;50.908;6.962;2022-07-23T06:27:14;18.60;99.90
44487;DHT22;30191;50.908;6.962;2022-07-23T06:29:39;18.60;99.90
44487;DHT22;30191;50.908;6.962;2022-07-23T06:32:06;18.60;99.90
44487;DHT22;30191;50.908;6.962;2022-07-23T06:34:32;18.60;99.90
44487;DHT22;30191;50.908;6.962;2022-07-23T06:36:58;18.70;99.90
44487;DHT22;30191;50.908;6.962;2022-07-23T06:39:24;18.70;99.90
44487;DHT22;30191;50.908;6.962;2022-07-23T06:41:50;18.70;99.90
44487;DHT22;30191;50.908;6.962;2022-07-23T06:44:17;18.70;99.90
44487;DHT22;30191;50.908;6.962;2022-07-23T06:46:42;18.70;99.90
44487;DHT22;30191;50.908;6.962;2022-07-23T06:49:08;18.70;99.90
44487;DHT22;30191;50.908;6.962;2022-07-23T06:51:34;18.80;99.90
44487;DHT22;30191;50.908;6.962;2022-07-23T06:54:00;18.90;99.90
44487;DHT22;30191;50.908;6.962;2022-07-23T06:56:26;18.90;99.90
44487;DHT22;30191;50.908;6.962;2022-07-23T06:58:52;19.00;99.90
44487;DHT22;30191;50.908;6.962;2022-07-23T07:01:18;19.00;99.90
44487;DHT22;30191;50.908;6.962;2022-07-23T07:03:44;19.10;99.90
44487;DHT22;30191;50.908;6.962;2022-07-23T07:06:09;19.10;99.90
44487;DHT22;30191;50.908;6.962;2022-07-23T07:08:38;19.10;99.90
44487;DHT22;30191;50.908;6.962;2022-07-23T07:11:04;19.20;99.90
44487;DHT22;30191;50.908;6.962;2022-07-23T07:13:30;19.10;99.90
44487;DHT22;30191;50.908;6.962;2022-07-23T07:15:56;19.20;99.90
44487;DHT22;30191;50.908;6.962;2022-07-23T07:18:21;19.20;99.90
44487;DHT22;30191;50.908;6.962;2022-07-23T07:20:48;19.20;99.90
44487;DHT22;30191;50.908;6.962;2022-07-23T07:23:14;19.20;99.90
44487;DHT22;30191;50.908;6.962;2022-07-23T07:25:40;19.30;99.90
44487;DHT22;30191;50.908;6.962;2022-07-23T07:28:06;19.30;99.90
44487;DHT22;30191;50.908;6.962;2022-07-23T07:30:32;19.30;99.90
44487;DHT22;30191;50.908;6.962;2022-07-23T07:32:57;19.30;99.90
44487;DHT22;30191;50.908;6.962;2022-07-23T07:35:24;19.40;99.90
44487;DHT22;30191;50.908;6.962;2022-07-23T07:37:49;19.40;99.90
44487;DHT22;30191;50.908;6.962;2022-07-23T07:40:15;19.40;99.90
44487;DHT22;30191;50.908;6.962;2022-07-23T07:42:52;19.50;99.90
44487;DHT22;30191;50.908;6.962;2022-07-23T07:45:20;19.50;99.90
44487;DHT22;30191;50.908;6.962;2022-07-23T07:47:46;19.50;99.90
44487;DHT22;30191;50.908;6.962;2022-07-23T07:50:12;19.60;99.90
44487;DHT22;30191;50.908;6.962;2022-07-23T07:52:38;19.70;99.90
44487;DHT22;30191;50.908;6.962;2022-07-23T07:55:05;19.70;99.90
44487;DHT22;30191;50.908;6.962;2022-07-23T07:57:31;19.80;99.90
44487;DHT22;30191;50.908;6.962;2022-07-23T07:59:57;19.80;99.90
44487;DHT22;30191;50.908;6.962;2022-07-23T08:02:22;19.90;99.90
44487;DHT22;30191;50.908;6.962;2022-07-23T08:04:48;19.90;99.90
44487;DHT22;30191;50.908;6.962;2022-07-23T08:07:14;20.00;99.90
44487;DHT22;30191;50.908;6.962;2022-07-23T08:09:40;20.00;99.90
44487;DHT22;30191;50.908;6.962;2022-07-23T08:12:06;20.10;99.90
44487;DHT22;30191;50.908;6.962;2022-07-23T08:14:32;20.20;99.90
44487;DHT22;30191;50.908;6.962;2022-07-23T08:16:58;20.30;99.90
44487;DHT22;30191;50.908;6.962;2022-07-23T08:19:24;20.40;99.90
44487;DHT22;30191;50.908;6.962;2022-07-23T08:21:49;20.50;99.90
44487;DHT22;30191;50.908;6.962;2022-07-23T08:24:15;20.70;99.90
44487;DHT22;30191;50.908;6.962;2022-07-23T08:26:41;20.80;99.90
44487;DHT22;30191;50.908;6.962;2022-07-23T08:29:07;20.90;99.90
44487;DHT22;30191;50.908;6.962;2022-07-23T08:31:33;20.90;99.90
44487;DHT22;30191;50.908;6.962;2022-07-23T08:33:59;20.90;99.90
44487;DHT22;30191;50.908;6.962;2022-07-23T08:36:25;20.90;99.90
44487;DHT22;30191;50.908;6.962;2022-07-23T08:38:53;20.80;99.90
44487;DHT22;30191;50.908;6.962;2022-07-23T08:41:20;20.80;99.90
44487;DHT22;30191;50.908;6.962;2022-07-23T08:43:46;20.80;99.90
44487;DHT22;30191;50.908;6.962;2022-07-23T08:46:13;20.80;99.90
44487;DHT22;30191;50.908;6.962;2022-07-23T08:48:39;20.80;99.90
44487;DHT22;30191;50.908;6.962;2022-07-23T08:51:05;20.70;99.90
44487;DHT22;30191;50.908;6.962;2022-07-23T08:53:32;20.70;99.90
44487;DHT22;30191;50.908;6.962;2022-07-23T08:56:02;20.70;99.90
44487;DHT22;30191;50.908;6.962;2022-07-23T08:58:28;20.80;99.90
44487;DHT22;30191;50.908;6.962;2022-07-23T09:00:55;20.80;99.90
44487;DHT22;30191;50.908;6.962;2022-07-23T09:03:30;20.80;99.90
44487;DHT22;30191;50.908;6.962;2022-07-23T09:05:58;20.90;99.90
44487;DHT22;30191;50.908;6.962;2022-07-23T09:08:44;21.00;99.90
44487;DHT22;30191;50.908;6.962;2022-07-23T09:11:15;21.00;99.90
44487;DHT22;30191;50.908;6.962;2022-07-23T09:13:52;21.00;99.90
44487;DHT22;30191;50.908;6.962;2022-07-23T09:18:53;21.10;99.90
44487;DHT22;30191;50.908;6.962;2022-07-23T09:21:33;21.20;99.90
44487;DHT22;30191;50.908;6.962;2022-07-23T09:24:01;21.10;99.90
44487;DHT22;30191;50.908;6.962;2022-07-23T09:26:34;21.20;99.90
44487;DHT22;30191;50.908;6.962;2022-07-23T09:29:11;21.10;99.90
44487;DHT22;30191;50.908;6.962;2022-07-23T09:31:57;21.10;99.90
44487;DHT22;30191;50.908;6.962;2022-07-23T09:36:50;21.10;99.90
44487;DHT22;30191;50.908;6.962;2022-07-23T09:39:31;21.10;99.90
44487;DHT22;30191;50.908;6.962;2022-07-23T09:41:58;21.20;99.90
44487;DHT22;30191;50.908;6.962;2022-07-23T09:44:41;21.20;99.90
44487;DHT22;30191;50.908;6.962;2022-07-23T09:47:07;21.40;99.90
44487;DHT22;30191;50.908;6.962;2022-07-23T09:49:33;21.50;99.90
44487;DHT22;30191;50.908;6.962;2022-07-23T09:51:59;21.40;99.90
44487;DHT22;30191;50.908;6.962;2022-07-23T09:54:36;21.40;99.90
44487;DHT22;30191;50.908;6.962;2022-07-23T09:57:11;21.50;99.90
44487;DHT22;30191;50.908;6.962;2022-07-23T09:59:43;21.50;99.90
44487;DHT22;30191;50.908;6.962;2022-07-23T10:02:10;21.50;99.90
44487;DHT22;30191;50.908;6.962;2022-07-23T10:04:37;21.60;99.90
44487;DHT22;30191;50.908;6.962;2022-07-23T10:07:05;21.50;99.90
44487;DHT22;30191;50.908;6.962;2022-07-23T10:09:33;21.50;99.90
44487;DHT22;30191;50.908;6.962;2022-07-23T10:12:02;21.50;99.90
44487;DHT22;30191;50.908;6.962;2022-07-23T10:14:32;21.60;99.90
44487;DHT22;30191;50.908;6.962;2022-07-23T10:17:02;21.60;99.90
44487;DHT22;30191;50.908;6.962;2022-07-23T10:19:28;21.70;99.90
44487;DHT22;30191;50.908;6.962;2022-07-23T10:22:00;21.70;99.90
44487;DHT22;30191;50.908;6.962;2022-07-23T10:27:43;21.70;99.90
44487;DHT22;30191;50.908;6.962;2022-07-23T10:30:29;21.80;99.90
44487;DHT22;30191;50.908;6.962;2022-07-23T10:35:40;22.00;99.90
44487;DHT22;30191;50.908;6.962;2022-07-23T10:41:00;22.00;99.90
44487;DHT22;30191;50.908;6.962;2022-07-23T10:43:26;22.10;99.90
44487;DHT22;30191;50.908;6.962;2022-07-23T10:45:53;22.10;99.90
44487;DHT22;30191;50.908;6.962;2022-07-23T10:48:24;22.20;99.90
44487;DHT22;30191;50.908;6.962;2022-07-23T10:56:14;22.20;99.90
44487;DHT22;30191;50.908;6.962;2022-07-23T10:58:48;22.30;99.90
44487;DHT22;30191;50.908;6.962;2022-07-23T11:01:36;22.40;99.90
44487;DHT22;30191;50.908;6.962;2022-07-23T11:04:03;22.50;99.90
44487;DHT22;30191;50.908;6.962;2022-07-23T11:09:41;22.60;99.90
44487;DHT22;30191;50.908;6.962;2022-07-23T11:20:22;22.80;99.90
44487;DHT22;30191;50.908;6.962;2022-07-23T11:22:51;22.70;99.90
44487;DHT22;30191;50.908;6.962;2022-07-23T11:27:53;22.80;99.90
44487;DHT22;30191;50.908;6.962;2022-07-23T11:33:16;23.00;99.90
44487;DHT22;30191;50.908;6.962;2022-07-23T11:35:43;23.00;99.90
44487;DHT22;30191;50.908;6.962;2022-07-23T11:38:22;23.10;99.90
44487;DHT22;30191;50.908;6.962;2022-07-23T11:40:54;23.10;99.90
44487;DHT22;30191;50.908;6.962;2022-07-23T11:43:22;23.20;99.90
44487;DHT22;30191;50.908;6.962;2022-07-23T11:45:51;23.30;99.90
44487;DHT22;30191;50.908;6.962;2022-07-23T11:48:21;23.30;99.90
44487;DHT22;30191;50.908;6.962;2022-07-23T11:50:47;23.40;99.90
44487;DHT22;30191;50.908;6.962;2022-07-23T11:53:29;23.40;99.90
44487;DHT22;30191;50.908;6.962;2022-07-23T11:56:07;23.40;99.90
44487;DHT22;30191;50.908;6.962;2022-07-23T11:58:33;23.60;99.90
44487;DHT22;30191;50.908;6.962;2022-07-23T12:00:59;23.60;99.90
44487;DHT22;30191;50.908;6.962;2022-07-23T12:03:24;23.70;99.90
44487;DHT22;30191;50.908;6.962;2022-07-23T12:05:56;23.70;99.90
44487;DHT22;30191;50.908;6.962;2022-07-23T12:08:23;23.90;99.90
44487;DHT22;30191;50.908;6.962;2022-07-23T12:10:49;24.00;99.90
44487;DHT22;30191;50.908;6.962;2022-07-23T12:13:17;24.00;99.90
44487;DHT22;30191;50.908;6.962;2022-07-23T12:15:51;24.10;99.90
44487;DHT22;30191;50.908;6.962;2022-07-23T12:18:20;24.10;99.90
44487;DHT22;30191;50.908;6.962;2022-07-23T12:20:49;24.20;99.90
44487;DHT22;30191;50.908;6.962;2022-07-23T12:23:18;24.10;99.90
44487;DHT22;30191;50.908;6.962;2022-07-23T12:25:47;24.20;99.90
44487;DHT22;30191;50.908;6.962;2022-07-23T12:28:33;24.20;99.90
44487;DHT22;30191;50.908;6.962;2022-07-23T12:31:01;24.30;99.90
44487;DHT22;30191;50.908;6.962;2022-07-23T12:33:35;24.40;99.90
44487;DHT22;30191;50.908;6.962;2022-07-23T12:36:04;24.50;99.50
44487;DHT22;30191;50.908;6.962;2022-07-23T12:38:41;24.70;98.50
44487;DHT22;30191;50.908;6.962;2022-07-23T12:41:07;24.70;98.60
44487;DHT22;30191;50.908;6.962;2022-07-23T12:43:36;24.80;99.00
44487;DHT22;30191;50.908;6.962;2022-07-23T12:46:07;24.90;99.00
44487;DHT22;30191;50.908;6.962;2022-07-23T12:48:38;24.90;99.10
44487;DHT22;30191;50.908;6.962;2022-07-23T12:51:06;25.00;98.70
44487;DHT22;30191;50.908;6.962;2022-07-23T12:53:38;25.00;98.70
44487;DHT22;30191;50.908;6.962;2022-07-23T13:01:06;25.40;98.10
44487;DHT22;30191;50.908;6.962;2022-07-23T13:03:41;25.50;97.80
44487;DHT22;30191;50.908;6.962;2022-07-23T13:06:11;25.60;97.60
44487;DHT22;30191;50.908;6.962;2022-07-23T13:08:38;25.60;97.30
44487;DHT22;30191;50.908;6.962;2022-07-23T13:11:05;25.60;97.50
44487;DHT22;30191;50.908;6.962;2022-07-23T13:13:33;26.00;98.00
44487;DHT22;30191;50.908;6.962;2022-07-23T13:15:59;26.10;97.70
44487;DHT22;30191;50.908;6.962;2022-07-23T13:18:26;26.20;97.40
44487;DHT22;30191;50.908;6.962;2022-07-23T13:20:53;26.20;97.40
44487;DHT22;30191;50.908;6.962;2022-07-23T13:23:19;26.20;97.10
44487;DHT22;30191;50.908;6.962;2022-07-23T13:25:46;26.40;96.90
44487;DHT22;30191;50.908;6.962;2022-07-23T13:28:12;26.60;96.80
44487;DHT22;30191;50.908;6.962;2022-07-23T13:30:39;26.80;96.80
44487;DHT22;30191;50.908;6.962;2022-07-23T13:33:05;27.10;96.40
44487;DHT22;30191;50.908;6.962;2022-07-23T13:35:31;27.30;96.10
44487;DHT22;30191;50.908;6.962;2022-07-23T13:37:57;27.60;96.30
44487;DHT22;30191;50.908;6.962;2022-07-23T13:40:23;28.00;95.80
44487;DHT22;30191;50.908;6.962;2022-07-23T13:42:48;28.40;95.20
44487;DHT22;30191;50.908;6.962;2022-07-23T13:45:14;28.70;94.40
44487;DHT22;30191;50.908;6.962;2022-07-23T13:47:40;28.80;93.70
44487;DHT22;30191;50.908;6.962;2022-07-23T13:50:06;29.00;93.50
44487;DHT22;30191;50.908;6.962;2022-07-23T13:52:32;29.40;93.00
44487;DHT22;30191;50.908;6.962;2022-07-23T13:55:04;30.70;92.60
44487;DHT22;30191;50.908;6.962;2022-07-23T13:57:31;32.50;91.20
44487;DHT22;30191;50.908;6.962;2022-07-23T13:59:57;33.90;88.20
44487;DHT22;30191;50.908;6.962;2022-07-23T14:02:23;35.10;82.30
44487;DHT22;30191;50.908;6.962;2022-07-23T14:04:50;35.70;78.40
44487;DHT22;30191;50.908;6.962;2022-07-23T14:07:16;36.20;76.70
44487;DHT22;30191;50.908;6.962;2022-07-23T14:09:42;36.70;74.10
44487;DHT22;30191;50.908;6.962;2022-07-23T14:12:08;36.40;72.10
44487;DHT22;30191;50.908;6.962;2022-07-23T14:14:34;36.70;71.90
44487;DHT22;30191;50.908;6.962;2022-07-23T14:17:00;36.80;70.40
44487;DHT22;30191;50.908;6.962;2022-07-23T14:19:26;37.00;69.60
44487;DHT22;30191;50.908;6.962;2022-07-23T14:21:51;36.70;69.10
44487;DHT22;30191;50.908;6.962;2022-07-23T14:24:17;36.90;69.00
44487;DHT22;30191;50.908;6.962;2022-07-23T14:26:43;37.30;68.50
44487;DHT22;30191;50.908;6.962;2022-07-23T14:29:08;37.60;67.50
44487;DHT22;30191;50.908;6.962;2022-07-23T14:31:34;37.60;66.70
44487;DHT22;30191;50.908;6.962;2022-07-23T14:34:01;37.80;65.80
44487;DHT22;30191;50.908;6.962;2022-07-23T14:36:27;37.90;65.10
44487;DHT22;30191;50.908;6.962;2022-07-23T14:38:53;38.00;65.00
44487;DHT22;30191;50.908;6.962;2022-07-23T14:41:19;37.90;64.10
44487;DHT22;30191;50.908;6.962;2022-07-23T14:43:44;37.70;64.70
44487;DHT22;30191;50.908;6.962;2022-07-23T14:46:11;37.20;64.60
44487;DHT22;30191;50.908;6.962;2022-07-23T14:48:37;36.70;64.90
44487;DHT22;30191;50.908;6.962;2022-07-23T14:51:03;36.20;65.10
44487;DHT22;30191;50.908;6.962;2022-07-23T14:53:29;35.80;65.80
44487;DHT22;30191;50.908;6.962;2022-07-23T14:55:55;35.60;65.90
44487;DHT22;30191;50.908;6.962;2022-07-23T14:58:23;35.70;66.00
44487;DHT22;30191;50.908;6.962;2022-07-23T15:00:49;35.60;65.80
44487;DHT22;30191;50.908;6.962;2022-07-23T15:03:14;35.80;65.40
44487;DHT22;30191;50.908;6.962;2022-07-23T15:05:41;36.00;65.40
44487;DHT22;30191;50.908;6.962;2022-07-23T15:08:06;36.40;65.00
44487;DHT22;30191;50.908;6.962;2022-07-23T15:10:32;36.70;64.40
44487;DHT22;30191;50.908;6.962;2022-07-23T15:12:58;36.80;64.90
44487;DHT22;30191;50.908;6.962;2022-07-23T15:15:23;36.80;64.30
44487;DHT22;30191;50.908;6.962;2022-07-23T15:17:49;36.80;64.80
44487;DHT22;30191;50.908;6.962;2022-07-23T15:20:15;36.80;64.80
44487;DHT22;30191;50.908;6.962;2022-07-23T15:22:41;37.10;64.10
44487;DHT22;30191;50.908;6.962;2022-07-23T15:25:07;37.10;63.30
44487;DHT22;30191;50.908;6.962;2022-07-23T15:27:33;37.10;63.60
44487;DHT22;30191;50.908;6.962;2022-07-23T15:29:59;36.60;63.00
44487;DHT22;30191;50.908;6.962;2022-07-23T15:32:24;35.90;63.40
44487;DHT22;30191;50.908;6.962;2022-07-23T15:34:52;35.00;63.80
44487;DHT22;30191;50.908;6.962;2022-07-23T15:37:18;34.60;64.80
44487;DHT22;30191;50.908;6.962;2022-07-23T15:39:43;34.20;64.70
44487;DHT22;30191;50.908;6.962;2022-07-23T15:42:09;33.90;64.90
44487;DHT22;30191;50.908;6.962;2022-07-23T15:44:35;33.70;65.50
44487;DHT22;30191;50.908;6.962;2022-07-23T15:47:01;33.70;64.90
44487;DHT22;30191;50.908;6.962;2022-07-23T15:49:27;33.40;64.70
44487;DHT22;30191;50.908;6.962;2022-07-23T15:51:54;32.90;65.60
44487;DHT22;30191;50.908;6.962;2022-07-23T15:54:20;32.50;66.30
44487;DHT22;30191;50.908;6.962;2022-07-23T15:56:47;32.30;67.20
44487;DHT22;30191;50.908;6.962;2022-07-23T15:59:12;32.20;67.30
44487;DHT22;30191;50.908;6.962;2022-07-23T16:01:38;32.20;67.20
44487;DHT22;30191;50.908;6.962;2022-07-23T16:04:04;32.10;67.50
44487;DHT22;30191;50.908;6.962;2022-07-23T16:06:32;32.00;67.90
44487;DHT22;30191;50.908;6.962;2022-07-23T16:08:58;32.10;68.30
44487;DHT22;30191;50.908;6.962;2022-07-23T16:11:25;32.40;68.30